Wednesday, July 30, 2014, 9:06 AM EDT
Back to Local

KMPO, Mt Pocono Pocono Mountains

Location: Pocono Summit, PA, United States Lat: 41.133
Local Time: 9:06 AM EDT (13:06 GMT) Lon: -75.383
Time Zone: US/Eastern Elev: 1915 ft

Show me the last for .
Show Coded

Time T Td Feel RH Dir Speed Gust Alt SLP Vis Weather Sky Remarks
2014-07-30 08:53 59 52 - 77 - Calm - 30.08 30.07 10 CLR None
2014-07-30 07:53 55 51 - 86 280° 3 - 30.07 30.06 10 FEW070 6-hr Min Temp (8am): 45.0°F
6-hr Max Temp (8am): 55.0°F
2014-07-30 06:53 49 47 - 92 - Calm - 30.05 30.05 10 CLR None
2014-07-30 05:53 45 44 43 96 320° 5 - 30.04 30.04 9 CLR None
2014-07-30 04:53 46 44 44 92 320° 5 - 30.02 30.03 10 CLR None
2014-07-30 03:53 45 43 44 92 310° 3 - 30.03 30.03 10 SCT001 None
2014-07-30 03:30 47 44 - 89 - Calm - 30.03 - 10 BKN001 None
2014-07-30 03:22 46 44 - 92 - Calm - 30.02 - 9 SCT001 None
2014-07-30 02:53 48 46 - 92 - Calm - 30.02 30.02 10 CLR None
2014-07-30 01:53 49 47 - 92 - Calm - 30.03 30.02 10 CLR 6-hr Min Temp (2am): 48.0°F
6-hr Max Temp (2am): 61.0°F
2014-07-30 00:53 51 48 - 89 320° 3 - 30.02 30.01 10 CLR 24-hr Min Temp (1am): 51.1°F
24-hr Max Temp (1am): 66.9°F
2014-07-29 23:53 52 49 - 89 310° 3 - 30.02 30.01 10 SCT065 None
2014-07-29 22:53 54 50 - 86 - Calm - 30.02 30.01 10 SCT065 None
2014-07-29 21:53 57 49 - 74 320° 5 - 30.02 30.01 10 OVC065 None
2014-07-29 20:53 59 50 - 72 310° 6 - 30.00 30.00 10 OVC065 None
2014-07-29 19:53 61 49 - 64 320° 7 - 30.00 29.99 10 OVC065 6-hr Min Temp (8pm): 61.0°F
6-hr Max Temp (8pm): 66.9°F
2014-07-29 18:53 62 49 - 62 330° 8 - 29.99 29.98 10 OVC065 None
2014-07-29 17:53 63 49 - 60 340° 7 - 29.98 29.97 10 OVC060 None
2014-07-29 16:53 64 45 - 49 320° 8 - 29.96 29.95 10 OVC060 None
2014-07-29 15:53 65 47 - 52 310° 8 - 29.95 29.94 10 OVC060 None
2014-07-29 14:53 64 47 - 53 330° 8 - 29.94 29.93 10 FEW041 OVC055 None
2014-07-29 13:53 65 45 - 48 290° 9 - 29.93 29.92 10 FEW042 BKN050 6-hr Min Temp (2pm): 55.9°F
6-hr Max Temp (2pm): 66.0°F
2014-07-29 12:53 65 47 - 52 300° 12 - 29.93 29.91 10 FEW038 BKN048 None
2014-07-29 11:53 63 46 - 53 310° 13 21 29.93 29.92 10 BKN047 None
2014-07-29 10:53 63 49 - 60 340° 9 - 29.93 29.92 10 FEW031 SCT042 None
2014-07-29 09:53 60 48 - 64 330° 8 23 29.92 29.91 10 CLR None

Support USWX by starting your Amazon purchase here.